»·PEaware :: BAW100 KSEA-KEKO

BAW100 :: KSEA-KEKO

FLIGHT INFORMATION

Flight Status: Arrived
Operator:
British Airways
More flights by this operator :: More flights under this callsign
Pilot: Anders S. (12537)
Aircraft: AIRBUS A321
(A321)
More flights by this aircraft type
Origin: KSEA Seattle-Tacoma Intl
United States
Destination: KEKO Elko Regl
United States
More flights between these airports :: More routes between these airports
Route: SUMMA2 BKE BQU
File this flight plan on PilotEdge
Remarks:
Altitude:
(Current/Filed)
33,000ft
Speed:
(Current/Filed)
450kts
Departed: 11-Sep-20 09:28 AM
Arrived: 11-Sep-20 10:55 AM
Distance/Time
Traveled:
486nm/1:27
Distance/Time
To Go:
Arrived

Flight Plot

Page will automatically refresh every two minutes.

Flight plan parsing failed; only flown route is shown


Map Options




Map Legend


Flown Route
Filed Route
Departure Airport
Arrival Airport
Navaid (VOR, NDB)
Fix

Horizontal Profiles

Position Reports

Time Latitude Longitude Heading Altitude Ground
Speed
11-Sep-20 09:04 47.445885 -122.301026 144 440ft 0kts
11-Sep-20 09:05 47.445885 -122.301026 144 440ft 0kts
11-Sep-20 09:06 47.445885 -122.301026 144 440ft 0kts
11-Sep-20 09:07 47.445885 -122.301026 144 440ft 0kts
11-Sep-20 09:09 47.445885 -122.301026 144 440ft 0kts
11-Sep-20 09:10 47.445885 -122.301026 144 440ft 0kts
11-Sep-20 09:11 47.445885 -122.301026 144 440ft 0kts
11-Sep-20 09:12 47.445885 -122.301026 144 440ft 0kts
11-Sep-20 09:13 47.445885 -122.301026 144 440ft 0kts
11-Sep-20 09:14 47.445885 -122.301026 144 440ft 0kts
11-Sep-20 09:15 47.445885 -122.301026 144 440ft 0kts
11-Sep-20 09:16 47.446163 -122.301313 140 439ft 2kts
11-Sep-20 09:17 47.446219 -122.301803 54 439ft 0kts
11-Sep-20 09:18 47.447009 -122.302605 311 440ft 0kts
11-Sep-20 09:19 47.447179 -122.302901 305 439ft 6kts
11-Sep-20 09:20 47.449444 -122.306194 0 439ft 12kts
11-Sep-20 09:21 47.452342 -122.306188 0 439ft 13kts
11-Sep-20 09:22 47.455652 -122.306189 359 439ft 13kts
11-Sep-20 09:23 47.459186 -122.306199 359 439ft 13kts
11-Sep-20 09:24 47.463010 -122.306220 359 439ft 10kts
11-Sep-20 09:25 47.463265 -122.306393 283 439ft 0kts
11-Sep-20 09:25 47.463265 -122.306397 283 439ft 0kts
11-Sep-20 09:27 47.463009 -122.307574 200 439ft 14kts
11-Sep-20 09:27 47.446464 -122.307692 180 521ft 164kts
11-Sep-20 09:28 47.399261 -122.302761 179 2656ft 179kts
11-Sep-20 09:30 47.328198 -122.304649 181 5353ft 244kts
11-Sep-20 09:30 47.269693 -122.308152 182 7221ft 258kts
11-Sep-20 09:31 47.198392 -122.287297 160 9458ft 269kts
11-Sep-20 09:32 47.119986 -122.246303 159 11726ft 346kts
11-Sep-20 09:33 47.022808 -122.195226 159 13955ft 387kts
11-Sep-20 09:34 46.918824 -122.140960 160 16170ft 407kts
11-Sep-20 09:35 46.809553 -122.085171 161 18403ft 424kts
11-Sep-20 09:36 46.696249 -122.027949 161 20613ft 440kts
11-Sep-20 09:37 46.588059 -121.942522 129 22840ft 459kts
11-Sep-20 09:38 46.527243 -121.782302 112 24981ft 476kts
11-Sep-20 09:39 46.468469 -121.605926 118 26566ft 494kts
11-Sep-20 09:40 46.398525 -121.433533 119 28079ft 496kts
11-Sep-20 09:41 46.328657 -121.261599 118 29579ft 497kts
11-Sep-20 09:42 46.259066 -121.088471 117 31338ft 497kts
11-Sep-20 09:43 46.189452 -120.917647 118 32953ft 492kts
11-Sep-20 09:44 46.119043 -120.748363 118 33099ft 491kts
11-Sep-20 09:45 46.048368 -120.580249 118 33098ft 491kts
11-Sep-20 09:46 45.985253 -120.430058 121 33094ft 493kts
11-Sep-20 09:47 45.914626 -120.260378 118 33101ft 494kts
11-Sep-20 09:48 45.843959 -120.092163 118 33096ft 493kts
11-Sep-20 09:49 45.773025 -119.923736 118 33088ft 492kts
11-Sep-20 09:50 45.702065 -119.756813 118 33084ft 491kts
11-Sep-20 09:51 45.630735 -119.590342 118 33091ft 490kts
11-Sep-20 09:52 45.559782 -119.424782 118 33094ft 490kts
11-Sep-20 09:53 45.488701 -119.259812 118 33104ft 489kts
11-Sep-20 09:54 45.416575 -119.095457 119 33100ft 489kts
11-Sep-20 09:55 45.344480 -118.932185 119 33139ft 488kts
11-Sep-20 09:56 45.272522 -118.768602 119 33184ft 487kts
11-Sep-20 09:57 45.200748 -118.606091 118 33177ft 487kts
11-Sep-20 09:58 45.128915 -118.444703 119 33198ft 484kts
11-Sep-20 09:59 45.056799 -118.283554 119 33203ft 484kts
11-Sep-20 10:00 44.984218 -118.123906 120 33211ft 482kts
11-Sep-20 10:01 44.911904 -117.964307 119 33212ft 481kts
11-Sep-20 10:02 44.837054 -117.808200 132 33209ft 484kts
11-Sep-20 10:03 44.719433 -117.715779 156 33220ft 489kts
11-Sep-20 10:04 44.592458 -117.646439 158 33208ft 492kts
11-Sep-20 10:05 44.463490 -117.580467 159 32903ft 493kts
11-Sep-20 10:06 44.334473 -117.515259 159 32202ft 495kts
11-Sep-20 10:07 44.205612 -117.450358 159 31482ft 492kts
11-Sep-20 10:08 44.077628 -117.385950 159 30524ft 485kts
11-Sep-20 10:09 43.951930 -117.322686 159 29530ft 481kts
11-Sep-20 10:10 43.825570 -117.259083 158 28990ft 482kts
11-Sep-20 10:11 43.699973 -117.195860 158 28467ft 480kts
11-Sep-20 10:12 43.574876 -117.132884 158 27945ft 476kts
11-Sep-20 10:13 43.451085 -117.070568 158 27424ft 473kts
11-Sep-20 10:14 43.328333 -117.008763 158 26907ft 469kts
11-Sep-20 10:15 43.206183 -116.947256 158 26387ft 465kts
11-Sep-20 10:16 43.085026 -116.886254 158 25864ft 462kts
11-Sep-20 10:17 42.965270 -116.825942 158 25342ft 458kts
11-Sep-20 10:18 42.846621 -116.766093 158 24820ft 454kts
11-Sep-20 10:19 42.728717 -116.706955 158 23848ft 448kts
11-Sep-20 10:20 42.613437 -116.649852 158 22838ft 439kts
11-Sep-20 10:21 42.507284 -116.597551 158 21893ft 432kts
11-Sep-20 10:22 42.408380 -116.549311 158 20804ft 424kts
11-Sep-20 10:23 42.300286 -116.496806 158 18988ft 402kts
11-Sep-20 10:24 42.197206 -116.446944 159 17199ft 387kts
11-Sep-20 10:25 42.097135 -116.398762 159 17013ft 380kts
11-Sep-20 10:26 41.997549 -116.351044 158 17013ft 379kts
11-Sep-20 10:27 41.898400 -116.303556 159 17016ft 379kts
11-Sep-20 10:28 41.799083 -116.255827 158 17016ft 379kts
11-Sep-20 10:29 41.700307 -116.208292 158 17017ft 378kts
11-Sep-20 10:30 41.623449 -116.171286 158 17017ft 378kts
11-Sep-20 10:31 41.524198 -116.123532 157 17023ft 378kts
11-Sep-20 10:32 41.427806 -116.077249 158 17012ft 367kts
11-Sep-20 10:33 41.332387 -116.031234 159 16997ft 336kts
11-Sep-20 10:34 41.250395 -115.992029 159 16940ft 294kts
11-Sep-20 10:35 41.177114 -115.957766 159 15069ft 260kts
11-Sep-20 10:36 41.112410 -115.927116 159 13082ft 237kts
11-Sep-20 10:37 41.051948 -115.898797 160 11300ft 225kts
11-Sep-20 10:38 40.996790 -115.872987 160 10141ft 217kts
11-Sep-20 10:39 40.940475 -115.846586 160 10003ft 215kts
11-Sep-20 10:40 40.888779 -115.822268 160 10007ft 215kts
11-Sep-20 10:41 40.832544 -115.795748 160 10008ft 215kts
11-Sep-20 10:42 40.776386 -115.769259 160 9999ft 207kts
11-Sep-20 10:43 40.725157 -115.748547 165 9998ft 196kts
11-Sep-20 10:44 40.674672 -115.762380 210 9817ft 192kts
11-Sep-20 10:45 40.626595 -115.775599 139 9501ft 193kts
11-Sep-20 10:46 40.638310 -115.722321 22 8819ft 189kts
11-Sep-20 10:47 40.688158 -115.735222 342 7591ft 181kts
11-Sep-20 10:48 40.736196 -115.753314 344 7496ft 179kts
11-Sep-20 10:49 40.783278 -115.771630 338 7239ft 171kts
11-Sep-20 10:50 40.826783 -115.791716 339 6568ft 163kts
11-Sep-20 10:51 40.840148 -115.844008 270 6401ft 161kts
11-Sep-20 10:52 40.807944 -115.844782 132 5709ft 164kts
11-Sep-20 10:53 40.822405 -115.794637 64 5151ft 124kts
11-Sep-20 10:54 40.826754 -115.780167 58 5151ft 11kts
11-Sep-20 10:55 40.827673 -115.781907 297 5151ft 12kts
11-Sep-20 10:56 40.828400 -115.782286 37 5151ft 0kts
11-Sep-20 10:57 40.828400 -115.782286 37 5151ft 0kts
11-Sep-20 10:58 40.828400 -115.782286 37 5151ft 0kts
11-Sep-20 10:59 40.828400 -115.782286 37 5151ft 0kts
11-Sep-20 11:00 40.828400 -115.782286 37 5151ft 0kts
11-Sep-20 11:01 40.828400 -115.782286 37 5151ft 0kts
11-Sep-20 11:02 40.828400 -115.782286 37 5151ft 0kts
11-Sep-20 11:03 40.828400 -115.782286 37 5151ft 0kts
11-Sep-20 11:04 40.828400 -115.782286 37 5151ft 0kts
11-Sep-20 11:06 40.828400 -115.782286 37 5151ft 0kts
11-Sep-20 11:07 40.828400 -115.782286 37 5151ft 0kts
11-Sep-20 11:08 40.828400 -115.782286 37 5151ft 0kts
11-Sep-20 11:09 40.828400 -115.782286 37 5151ft 0kts
11-Sep-20 11:10 40.828400 -115.782286 37 5151ft 0kts

Navigation Log

Ident Type
Flight plan parsing failed, navigation log unavailable